createdAt,value
2023-04-30T00:01:00.029Z,5.77
2023-04-30T00:03:28.243Z,4.90
2023-04-30T00:05:55.375Z,7.43
2023-04-30T00:08:22.357Z,7.50
2023-04-30T00:10:49.387Z,5.53
2023-04-30T00:13:16.324Z,6.13
2023-04-30T00:15:43.266Z,7.73
2023-04-30T00:18:10.375Z,6.97
2023-04-30T00:20:37.356Z,8.50
2023-04-30T00:23:04.276Z,6.00
2023-04-30T00:25:31.301Z,8.87
2023-04-30T00:27:58.267Z,10.90
2023-04-30T00:30:25.191Z,6.77
2023-04-30T00:32:52.239Z,7.50
2023-04-30T00:35:19.256Z,8.47
2023-04-30T00:37:46.361Z,8.27
2023-04-30T00:40:14.491Z,10.60
2023-04-30T00:42:41.457Z,8.80
2023-04-30T00:45:09.048Z,9.27
2023-04-30T00:47:36.730Z,8.57
2023-04-30T00:50:03.851Z,9.43
2023-04-30T00:52:32.198Z,9.63
2023-04-30T00:54:59.243Z,9.77
2023-04-30T00:57:27.435Z,8.73
2023-04-30T00:59:55.711Z,13.77
2023-04-30T01:02:23.748Z,8.40
2023-04-30T01:04:52.049Z,11.50
2023-04-30T01:07:19.214Z,11.13
2023-04-30T01:09:47.287Z,14.73
2023-04-30T01:12:33.347Z,9.77
2023-04-30T01:15:20.512Z,8.90
2023-04-30T01:17:56.330Z,9.20
2023-04-30T01:20:24.566Z,11.10
2023-04-30T01:23:28.329Z,11.47
2023-04-30T01:26:35.890Z,11.70
2023-04-30T01:29:04.529Z,12.33
2023-04-30T01:31:31.558Z,10.83
2023-04-30T01:33:58.571Z,9.77
2023-04-30T01:36:49.360Z,13.87
2023-04-30T01:39:22.645Z,16.07
2023-04-30T01:42:06.965Z,12.93
2023-04-30T01:44:39.861Z,11.37
2023-04-30T01:47:24.259Z,11.17
2023-04-30T01:50:06.102Z,11.87
2023-04-30T01:52:41.635Z,11.43
2023-04-30T01:55:20.680Z,10.77
2023-04-30T01:57:58.165Z,14.60
2023-04-30T02:00:27.444Z,10.20
2023-04-30T02:02:54.557Z,14.47
2023-04-30T02:05:21.779Z,12.87
2023-04-30T02:07:51.677Z,14.60
2023-04-30T02:10:20.985Z,10.90
2023-04-30T02:12:47.904Z,10.40
2023-04-30T02:15:15.344Z,10.73
2023-04-30T02:17:42.352Z,12.90
2023-04-30T02:20:10.394Z,11.10
2023-04-30T02:22:37.679Z,9.90
2023-04-30T02:25:04.975Z,10.87
2023-04-30T02:27:33.402Z,11.13
2023-04-30T02:30:01.191Z,10.30
2023-04-30T02:32:28.154Z,11.70
2023-04-30T02:34:57.354Z,10.53
2023-04-30T02:37:24.771Z,11.10
2023-04-30T02:39:52.436Z,15.90
2023-04-30T02:42:19.758Z,12.50
2023-04-30T02:44:46.790Z,14.00
2023-04-30T02:47:13.902Z,12.50
2023-04-30T02:49:40.950Z,11.10
2023-04-30T02:52:09.683Z,11.00
2023-04-30T02:54:36.743Z,11.80
2023-04-30T02:57:03.940Z,11.90
2023-04-30T02:59:31.212Z,16.50
2023-04-30T03:01:58.260Z,11.67
2023-04-30T03:04:25.968Z,13.27
2023-04-30T03:06:53.012Z,16.80
2023-04-30T03:09:20.020Z,15.17
2023-04-30T03:11:47.263Z,15.27
2023-04-30T03:14:14.450Z,15.00
2023-04-30T03:16:41.586Z,17.50
2023-04-30T03:19:08.605Z,15.00
2023-04-30T03:21:35.591Z,14.70
2023-04-30T03:24:02.565Z,17.07
2023-04-30T03:26:29.656Z,14.73
2023-04-30T03:28:56.626Z,17.80
2023-04-30T03:31:23.752Z,18.23
2023-04-30T03:33:51.120Z,19.10
2023-04-30T03:36:18.209Z,18.13
2023-04-30T03:38:45.216Z,17.03
2023-04-30T03:41:12.242Z,24.40
2023-04-30T03:43:39.188Z,19.37
2023-04-30T03:46:06.411Z,20.47
2023-04-30T03:48:33.506Z,20.10
2023-04-30T03:51:01.853Z,22.63
2023-04-30T03:53:29.119Z,23.07
2023-04-30T03:55:56.390Z,23.17
2023-04-30T03:58:23.462Z,19.63
2023-04-30T04:00:50.555Z,16.97
2023-04-30T04:03:18.100Z,21.20
2023-04-30T04:05:45.130Z,22.60
2023-04-30T04:08:12.186Z,25.17
2023-04-30T04:10:40.266Z,27.67
2023-04-30T04:13:07.421Z,24.50
2023-04-30T04:15:34.691Z,27.77
2023-04-30T04:18:02.869Z,24.37
2023-04-30T04:20:30.257Z,25.57
2023-04-30T04:22:57.395Z,24.77
2023-04-30T04:25:27.772Z,24.57
2023-04-30T04:27:54.788Z,21.33
2023-04-30T04:30:21.784Z,20.37
2023-04-30T04:32:51.954Z,24.73
2023-04-30T04:35:21.764Z,22.87
2023-04-30T04:37:49.273Z,27.27
2023-04-30T04:40:16.394Z,22.43
2023-04-30T04:42:43.400Z,22.07
2023-04-30T04:45:11.254Z,25.97
2023-04-30T04:47:38.468Z,23.73
2023-04-30T04:50:05.981Z,25.03
2023-04-30T04:52:32.975Z,24.23
2023-04-30T04:54:59.957Z,21.37
2023-04-30T04:57:26.971Z,23.57
2023-04-30T04:59:54.155Z,24.03
2023-04-30T05:02:23.476Z,21.80
2023-04-30T05:04:51.136Z,26.80
2023-04-30T05:07:18.465Z,26.30
2023-04-30T05:09:46.999Z,23.80
2023-04-30T05:12:14.710Z,25.17
2023-04-30T05:14:41.691Z,24.07
2023-04-30T05:17:08.852Z,23.77
2023-04-30T05:19:35.816Z,25.53
2023-04-30T05:22:02.815Z,23.50
2023-04-30T05:24:30.062Z,24.50
2023-04-30T05:26:57.097Z,19.87
2023-04-30T05:29:24.039Z,22.97
2023-04-30T05:31:51.060Z,20.67
2023-04-30T05:34:18.063Z,22.63
2023-04-30T05:36:45.641Z,22.20
2023-04-30T05:39:12.636Z,22.43
2023-04-30T05:41:39.708Z,19.10
2023-04-30T05:44:06.718Z,21.80
2023-04-30T05:46:35.357Z,22.17
2023-04-30T05:49:02.618Z,20.33
2023-04-30T05:51:29.628Z,23.90
2023-04-30T05:53:57.640Z,21.03
2023-04-30T05:56:25.270Z,21.20
2023-04-30T05:59:07.856Z,21.90
2023-04-30T06:01:36.048Z,20.00
2023-04-30T06:04:05.017Z,21.27
2023-04-30T06:06:32.140Z,23.13
2023-04-30T06:08:59.139Z,19.00
2023-04-30T06:11:26.287Z,25.37
2023-04-30T06:13:53.378Z,20.40
2023-04-30T06:16:20.475Z,21.77
2023-04-30T06:18:47.485Z,19.67
2023-04-30T06:21:14.435Z,18.90
2023-04-30T06:23:41.411Z,20.73
2023-04-30T06:26:08.312Z,21.23
2023-04-30T06:28:35.420Z,17.97
2023-04-30T06:31:03.837Z,18.20
2023-04-30T06:33:31.174Z,22.47
2023-04-30T06:35:58.342Z,16.50
2023-04-30T06:38:25.317Z,16.00
2023-04-30T06:40:52.464Z,18.77
2023-04-30T06:43:19.404Z,18.43
2023-04-30T06:45:46.484Z,17.57
2023-04-30T06:48:15.684Z,17.40
2023-04-30T06:50:46.319Z,15.43
2023-04-30T06:53:13.846Z,18.77
2023-04-30T06:55:42.944Z,22.90
2023-04-30T06:58:11.991Z,20.03
2023-04-30T07:00:38.913Z,16.07
2023-04-30T07:03:06.001Z,18.33
2023-04-30T07:05:33.530Z,15.70
2023-04-30T07:08:02.093Z,16.40
2023-04-30T07:10:29.344Z,19.07
2023-04-30T07:12:59.438Z,16.47
2023-04-30T07:15:26.402Z,21.93
2023-04-30T07:17:53.520Z,16.33
2023-04-30T07:20:20.733Z,16.40
2023-04-30T07:22:47.705Z,17.63
2023-04-30T07:25:14.886Z,18.67
2023-04-30T07:27:42.145Z,16.17
2023-04-30T07:30:10.681Z,17.60
2023-04-30T07:32:38.717Z,17.57
2023-04-30T07:35:06.317Z,18.07
2023-04-30T07:37:35.577Z,17.33
2023-04-30T07:40:03.888Z,19.07
2023-04-30T07:42:30.923Z,18.87
2023-04-30T07:44:58.212Z,18.20
2023-04-30T07:47:26.015Z,19.57
2023-04-30T07:49:53.281Z,18.77
2023-04-30T07:52:20.523Z,22.07
2023-04-30T07:54:47.563Z,20.23
2023-04-30T07:57:14.534Z,20.57
2023-04-30T07:59:41.511Z,20.50
2023-04-30T08:02:09.907Z,20.93
2023-04-30T08:04:36.925Z,21.13
2023-04-30T08:07:04.723Z,20.33
2023-04-30T08:09:31.977Z,21.90
2023-04-30T08:11:58.958Z,25.53
2023-04-30T08:14:26.213Z,19.13
2023-04-30T08:16:55.206Z,17.47
2023-04-30T08:19:22.156Z,21.23
2023-04-30T08:21:49.236Z,20.77
2023-04-30T08:24:16.197Z,17.93
2023-04-30T08:26:43.297Z,17.17
2023-04-30T08:29:10.319Z,17.80
2023-04-30T08:31:37.596Z,19.03
2023-04-30T08:34:04.716Z,16.67
2023-04-30T08:36:31.704Z,17.40
2023-04-30T08:39:01.958Z,17.50
2023-04-30T08:41:36.109Z,15.77
2023-04-30T08:44:05.740Z,15.10
2023-04-30T08:46:36.956Z,16.17
2023-04-30T08:49:04.192Z,14.57
2023-04-30T08:51:33.106Z,14.47
2023-04-30T08:54:00.120Z,14.73
2023-04-30T08:56:27.228Z,15.10
2023-04-30T08:58:54.404Z,13.17
2023-04-30T09:01:21.961Z,15.43
2023-04-30T09:03:49.486Z,14.43
2023-04-30T09:06:17.742Z,13.40
2023-04-30T09:08:50.155Z,12.10
2023-04-30T09:11:27.410Z,14.27
2023-04-30T09:14:02.283Z,12.93
2023-04-30T09:16:50.478Z,12.57
2023-04-30T09:19:23.945Z,12.40
2023-04-30T09:21:51.359Z,13.13
2023-04-30T09:24:18.849Z,12.67
2023-04-30T09:26:49.638Z,11.40
2023-04-30T09:29:17.324Z,13.60
2023-04-30T09:31:47.678Z,13.80
2023-04-30T09:34:15.493Z,12.60
2023-04-30T09:36:56.092Z,12.60
2023-04-30T09:39:23.741Z,16.07
2023-04-30T09:42:06.955Z,13.60
2023-04-30T09:44:39.176Z,12.33
2023-04-30T09:47:18.283Z,12.43
2023-04-30T09:49:52.466Z,13.30
2023-04-30T09:52:21.044Z,14.63
2023-04-30T09:54:48.447Z,14.33
2023-04-30T09:57:16.376Z,14.00
2023-04-30T09:59:46.264Z,13.00
2023-04-30T10:02:17.274Z,13.20
2023-04-30T10:04:48.936Z,13.33
2023-04-30T10:07:20.804Z,14.90
2023-04-30T10:09:51.597Z,13.70
2023-04-30T10:12:26.257Z,13.97
2023-04-30T10:14:58.495Z,12.70
2023-04-30T10:17:30.877Z,12.80
2023-04-30T10:20:03.820Z,14.00
2023-04-30T10:22:31.459Z,14.67
2023-04-30T10:24:58.973Z,13.80
2023-04-30T10:27:26.333Z,15.23
2023-04-30T10:29:55.376Z,14.43
2023-04-30T10:32:24.292Z,15.67
2023-04-30T10:35:06.527Z,14.03
2023-04-30T10:37:49.644Z,15.10
2023-04-30T10:40:17.013Z,14.17
2023-04-30T10:42:48.841Z,14.63
2023-04-30T10:45:20.998Z,13.70
2023-04-30T10:47:49.112Z,14.50
2023-04-30T10:50:17.460Z,15.10
2023-04-30T10:52:44.605Z,16.20
2023-04-30T10:55:17.684Z,17.13
2023-04-30T10:57:46.841Z,16.30
2023-04-30T11:00:15.375Z,16.73
2023-04-30T11:02:48.896Z,15.80
2023-04-30T11:05:18.471Z,14.93
2023-04-30T11:07:50.564Z,16.50
2023-04-30T11:10:23.489Z,14.07
2023-04-30T11:12:53.692Z,16.63
2023-04-30T11:15:26.209Z,14.97
2023-04-30T11:17:59.075Z,15.80
2023-04-30T11:20:27.929Z,15.33
2023-04-30T11:23:14.232Z,13.53
2023-04-30T11:25:47.239Z,11.83
2023-04-30T11:28:26.487Z,9.73
2023-04-30T11:30:59.135Z,9.40
2023-04-30T11:33:28.859Z,9.47
2023-04-30T11:35:56.974Z,7.67
2023-04-30T11:38:28.857Z,7.40
2023-04-30T11:40:57.087Z,7.20
2023-04-30T11:43:34.067Z,7.27
2023-04-30T11:46:10.376Z,7.97
2023-04-30T11:48:38.991Z,8.70
2023-04-30T11:51:17.986Z,9.53
2023-04-30T11:53:47.449Z,11.73
2023-04-30T11:56:14.815Z,9.80
2023-04-30T11:58:41.891Z,11.00
2023-04-30T12:01:10.921Z,9.47
2023-04-30T12:03:43.316Z,9.37
2023-04-30T12:06:21.618Z,8.43
2023-04-30T12:08:48.679Z,8.13
2023-04-30T12:11:27.463Z,7.77
2023-04-30T12:14:03.640Z,9.03
2023-04-30T12:16:51.232Z,6.70
2023-04-30T12:19:23.483Z,6.50
2023-04-30T12:21:50.942Z,9.73
2023-04-30T12:24:19.785Z,13.27
2023-04-30T12:26:48.178Z,13.70
2023-04-30T12:29:18.246Z,14.17
2023-04-30T12:31:49.831Z,17.10
2023-04-30T12:34:18.552Z,13.90
2023-04-30T12:36:45.838Z,11.47
2023-04-30T12:39:18.755Z,12.63
2023-04-30T12:41:48.838Z,13.10
2023-04-30T12:44:27.811Z,11.27
2023-04-30T12:46:57.869Z,9.47
2023-04-30T12:49:27.587Z,9.17
2023-04-30T12:52:11.562Z,9.70
2023-04-30T12:54:40.733Z,9.10
2023-04-30T12:57:12.619Z,9.73
2023-04-30T12:59:49.606Z,9.70
2023-04-30T13:02:16.687Z,10.73
2023-04-30T13:04:45.069Z,9.47
2023-04-30T13:07:12.164Z,10.13
2023-04-30T13:09:39.327Z,10.57
2023-04-30T13:12:07.250Z,8.40
2023-04-30T13:14:35.769Z,10.37
2023-04-30T13:17:06.018Z,9.87
2023-04-30T13:19:35.340Z,12.23
2023-04-30T13:22:03.742Z,10.43
2023-04-30T13:24:31.447Z,9.80
2023-04-30T13:26:59.476Z,9.83
2023-04-30T13:29:26.835Z,12.47
2023-04-30T13:31:54.046Z,11.70
2023-04-30T13:34:21.263Z,9.67
2023-04-30T13:36:49.251Z,9.43
2023-04-30T13:39:17.379Z,9.57
2023-04-30T13:41:45.866Z,8.80
2023-04-30T13:44:12.740Z,8.77
2023-04-30T13:46:40.163Z,8.40
2023-04-30T13:49:07.300Z,9.10
2023-04-30T13:51:37.104Z,8.30
2023-04-30T13:54:06.071Z,8.37
2023-04-30T13:56:33.141Z,7.63
2023-04-30T13:59:00.238Z,8.67
2023-04-30T14:01:27.361Z,8.00
2023-04-30T14:03:54.860Z,8.20
2023-04-30T14:06:22.404Z,7.20
2023-04-30T14:08:50.417Z,6.73
2023-04-30T14:11:20.945Z,6.60
2023-04-30T14:13:47.938Z,7.53
2023-04-30T14:16:15.116Z,9.13
2023-04-30T14:18:42.690Z,7.27
2023-04-30T14:21:10.816Z,8.00
2023-04-30T14:23:39.433Z,9.20
2023-04-30T14:26:06.424Z,7.10
2023-04-30T14:28:35.498Z,8.30
2023-04-30T14:31:02.648Z,8.87
2023-04-30T14:33:29.744Z,9.80
2023-04-30T14:36:00.172Z,10.13
2023-04-30T14:38:27.151Z,10.00
2023-04-30T14:40:55.082Z,11.53
2023-04-30T14:43:22.100Z,8.80
2023-04-30T14:45:49.481Z,11.53
2023-04-30T14:48:16.862Z,8.87
2023-04-30T14:50:46.936Z,10.17
2023-04-30T14:53:14.304Z,9.67
2023-04-30T14:55:41.819Z,9.47
2023-04-30T14:58:08.799Z,9.03
2023-04-30T15:00:35.752Z,9.23
2023-04-30T15:03:02.738Z,8.33
2023-04-30T15:05:30.516Z,10.60
2023-04-30T15:07:58.536Z,8.90
2023-04-30T15:10:25.940Z,9.67
2023-04-30T15:12:53.910Z,8.83
2023-04-30T15:15:25.064Z,11.10
2023-04-30T15:17:52.916Z,8.13
2023-04-30T15:20:20.087Z,8.67
2023-04-30T15:22:47.259Z,10.90
2023-04-30T15:25:14.389Z,9.83
2023-04-30T15:27:41.745Z,8.90
2023-04-30T15:30:09.601Z,9.20
2023-04-30T15:32:36.729Z,9.03
2023-04-30T15:35:04.040Z,9.70
2023-04-30T15:37:31.159Z,11.30
2023-04-30T15:39:58.298Z,9.30
2023-04-30T15:42:25.257Z,9.33
2023-04-30T15:44:52.612Z,9.63
2023-04-30T15:47:20.500Z,9.80
2023-04-30T15:49:48.789Z,10.70
2023-04-30T15:52:16.116Z,11.63
2023-04-30T15:54:43.287Z,12.93
2023-04-30T15:57:10.247Z,11.20
2023-04-30T15:59:37.174Z,11.37
2023-04-30T16:02:04.363Z,12.20
2023-04-30T16:04:31.673Z,11.40
2023-04-30T16:06:58.642Z,12.13
2023-04-30T16:09:27.072Z,11.07
2023-04-30T16:11:55.660Z,12.10
2023-04-30T16:14:23.653Z,11.20
2023-04-30T16:16:50.688Z,11.95
2023-04-30T16:19:18.704Z,12.40
2023-04-30T16:21:45.644Z,13.83
2023-04-30T16:24:12.822Z,12.93
2023-04-30T16:26:39.739Z,12.03
2023-04-30T16:29:08.101Z,16.37
2023-04-30T16:31:35.219Z,14.30
2023-04-30T16:34:02.213Z,12.80
2023-04-30T16:36:29.158Z,10.80
2023-04-30T16:38:56.345Z,17.80
2023-04-30T16:41:25.039Z,12.37
2023-04-30T16:43:52.050Z,13.43
2023-04-30T16:46:19.249Z,12.40
2023-04-30T16:48:46.392Z,9.50
2023-04-30T16:51:13.934Z,20.97
2023-04-30T16:53:40.936Z,12.07
2023-04-30T16:56:07.948Z,12.00
2023-04-30T16:58:34.991Z,9.97
2023-04-30T17:01:02.957Z,9.10
2023-04-30T17:03:30.918Z,7.80
2023-04-30T17:05:58.004Z,8.90
2023-04-30T17:08:26.294Z,8.67
2023-04-30T17:10:54.230Z,7.20
2023-04-30T17:13:23.518Z,9.07
2023-04-30T17:15:50.592Z,7.40
2023-04-30T17:18:17.710Z,7.07
2023-04-30T17:20:46.657Z,7.03
2023-04-30T17:23:13.635Z,6.20
2023-04-30T17:25:40.546Z,8.23
2023-04-30T17:28:08.157Z,6.70
2023-04-30T17:30:36.238Z,5.70
2023-04-30T17:33:06.069Z,6.40
2023-04-30T17:35:34.139Z,8.83
2023-04-30T17:38:02.308Z,8.33
2023-04-30T17:40:31.917Z,8.60
2023-04-30T17:43:01.021Z,7.97
2023-04-30T17:45:28.014Z,7.90
2023-04-30T17:47:58.017Z,7.37
2023-04-30T17:50:25.356Z,8.13
2023-04-30T17:52:53.226Z,4.70
2023-04-30T17:55:20.268Z,9.20
2023-04-30T17:57:47.340Z,11.33
2023-04-30T18:00:17.450Z,10.87
2023-04-30T18:02:44.889Z,21.70
2023-04-30T18:05:12.483Z,9.97
2023-04-30T18:07:39.388Z,9.83
2023-04-30T18:10:07.165Z,10.07
2023-04-30T18:12:34.303Z,8.23
2023-04-30T18:15:01.825Z,8.37
2023-04-30T18:17:33.924Z,6.83
2023-04-30T18:20:04.804Z,13.53
2023-04-30T18:22:32.813Z,20.33
2023-04-30T18:25:00.824Z,11.93
2023-04-30T18:27:27.765Z,10.20
2023-04-30T18:29:57.021Z,11.60
2023-04-30T18:32:24.291Z,15.97
2023-04-30T18:34:52.327Z,22.70
2023-04-30T18:37:19.380Z,16.13
2023-04-30T18:39:47.393Z,19.43
2023-04-30T18:42:14.885Z,19.07
2023-04-30T18:44:43.300Z,19.07
2023-04-30T18:47:11.802Z,21.60
2023-04-30T18:49:41.505Z,21.33
2023-04-30T18:52:08.492Z,27.17
2023-04-30T18:54:35.503Z,45.27
2023-04-30T18:57:02.473Z,21.73
2023-04-30T18:59:30.549Z,15.73
2023-04-30T19:01:58.510Z,17.13
2023-04-30T19:04:25.526Z,16.17
2023-04-30T19:06:55.941Z,13.27
2023-04-30T19:09:23.024Z,14.60
2023-04-30T19:11:50.270Z,13.30
2023-04-30T19:14:18.337Z,16.53
2023-04-30T19:16:45.403Z,17.23
2023-04-30T19:19:13.068Z,16.40
2023-04-30T19:21:40.168Z,13.17
2023-04-30T19:24:07.108Z,13.57
2023-04-30T19:26:34.787Z,12.37
2023-04-30T19:29:03.554Z,12.00
2023-04-30T19:31:31.604Z,13.57
2023-04-30T19:34:01.184Z,13.97
2023-04-30T19:36:28.615Z,14.13
2023-04-30T19:38:56.303Z,12.30
2023-04-30T19:41:23.322Z,12.37
2023-04-30T19:43:50.391Z,15.90
2023-04-30T19:46:18.384Z,13.70
2023-04-30T19:48:46.356Z,16.57
2023-04-30T19:51:13.373Z,14.80
2023-04-30T19:53:40.306Z,15.77
2023-04-30T19:56:10.141Z,16.27
2023-04-30T19:58:38.106Z,12.20
2023-04-30T20:01:05.477Z,13.73
2023-04-30T20:03:34.236Z,12.70
2023-04-30T20:06:02.932Z,12.77
2023-04-30T20:08:29.992Z,12.27
2023-04-30T20:10:57.418Z,15.63
2023-04-30T20:13:27.058Z,11.30
2023-04-30T20:15:57.555Z,14.77
2023-04-30T20:18:25.668Z,10.47
2023-04-30T20:20:58.652Z,10.47
2023-04-30T20:23:28.798Z,16.53
2023-04-30T20:25:59.361Z,9.60
2023-04-30T20:28:27.302Z,10.97
2023-04-30T20:30:54.325Z,10.53
2023-04-30T20:33:21.319Z,15.37
2023-04-30T20:35:49.636Z,9.57
2023-04-30T20:38:19.566Z,9.13
2023-04-30T20:40:50.450Z,9.83
2023-04-30T20:43:17.793Z,10.07
2023-04-30T20:45:48.404Z,10.77
2023-04-30T20:48:18.535Z,10.70
2023-04-30T20:50:47.808Z,13.83
2023-04-30T20:53:15.892Z,11.20
2023-04-30T20:55:46.492Z,10.33
2023-04-30T20:58:14.614Z,13.13
2023-04-30T21:00:43.688Z,10.37
2023-04-30T21:03:18.915Z,9.70
2023-04-30T21:05:46.176Z,11.20
2023-04-30T21:08:13.979Z,13.30
2023-04-30T21:10:41.799Z,10.00
2023-04-30T21:13:09.615Z,13.03
2023-04-30T21:15:36.764Z,13.00
2023-04-30T21:18:03.964Z,15.77
2023-04-30T21:20:31.795Z,11.33
2023-04-30T21:22:59.102Z,12.00
2023-04-30T21:25:26.816Z,10.07
2023-04-30T21:27:55.979Z,14.13
2023-04-30T21:30:25.809Z,10.50
2023-04-30T21:32:58.481Z,9.73
2023-04-30T21:35:27.747Z,9.90
2023-04-30T21:37:55.121Z,8.90
2023-04-30T21:40:22.162Z,10.97
2023-04-30T21:42:49.102Z,13.13
2023-04-30T21:45:16.102Z,14.77
2023-04-30T21:47:44.716Z,10.53
2023-04-30T21:50:12.357Z,11.47
2023-04-30T21:52:39.380Z,10.97
2023-04-30T21:55:06.943Z,9.13
2023-04-30T21:57:34.217Z,9.23
2023-04-30T22:00:01.167Z,10.10
2023-04-30T22:02:28.295Z,13.43
2023-04-30T22:04:57.785Z,10.13
2023-04-30T22:07:24.910Z,9.53
2023-04-30T22:09:52.708Z,11.33
2023-04-30T22:12:21.407Z,11.93
2023-04-30T22:14:50.246Z,11.47
2023-04-30T22:17:17.243Z,12.03
2023-04-30T22:19:44.166Z,10.00
2023-04-30T22:22:11.824Z,11.30
2023-04-30T22:24:38.846Z,9.30
2023-04-30T22:27:05.930Z,12.37
2023-04-30T22:29:32.858Z,10.17
2023-04-30T22:32:00.520Z,11.67
2023-04-30T22:34:27.806Z,9.60
2023-04-30T22:36:54.713Z,12.07
2023-04-30T22:39:22.927Z,11.67
2023-04-30T22:41:50.821Z,13.03
2023-04-30T22:44:18.653Z,11.90
2023-04-30T22:46:46.329Z,11.33
2023-04-30T22:49:27.406Z,10.63
2023-04-30T22:51:58.193Z,11.10
2023-04-30T22:54:25.402Z,10.83
2023-04-30T22:56:52.460Z,9.40
2023-04-30T22:59:19.490Z,8.73
2023-04-30T23:01:46.422Z,11.13
2023-04-30T23:04:13.794Z,9.50
2023-04-30T23:06:41.934Z,11.47
2023-04-30T23:09:10.223Z,8.73
2023-04-30T23:11:37.208Z,9.80
2023-04-30T23:14:04.785Z,9.17
2023-04-30T23:16:31.882Z,8.93
2023-04-30T23:18:58.864Z,13.03
2023-04-30T23:21:25.846Z,12.37
2023-04-30T23:23:53.127Z,10.57
2023-04-30T23:26:20.118Z,13.03
2023-04-30T23:28:47.081Z,13.97
2023-04-30T23:31:14.002Z,14.83
2023-04-30T23:33:40.975Z,18.60
2023-04-30T23:36:08.056Z,17.63
2023-04-30T23:38:35.004Z,19.57
2023-04-30T23:41:03.217Z,20.43
2023-04-30T23:43:31.532Z,15.67
2023-04-30T23:45:59.422Z,15.27
2023-04-30T23:48:26.944Z,16.80
2023-04-30T23:51:04.977Z,15.03
2023-04-30T23:53:32.258Z,15.30
2023-04-30T23:55:59.520Z,17.33
2023-04-30T23:58:27.584Z,19.77
